Time;durP1;ratioP1;P1;durP2;ratioP2;P2;SDS_P1;SDS_P2;PMS_P1;PMS_P2;Temp;Humidity;BMP_temperature;BMP_pressure;BME280_temperature;BME280_humidity;BME280_pressure;Samples;Min_cycle;Max_cycle;Signal;HPM_P1;HPM_P2
2023/01/10 00:00:52;;;;;;;2.53;0.80;;;10.50;95.90;;;;;;5003034;28;20120;-73
2023/01/10 00:03:18;;;;;;;4.10;1.02;;;10.30;96.10;;;;;;5013245;28;20042;-74
2023/01/10 00:05:44;;;;;;;3.63;0.80;;;10.30;96.10;;;;;;5010452;28;20039;-73
2023/01/10 00:08:14;;;;;;;2.90;0.93;;;10.30;96.10;;;;;;4997881;28;20137;-74
2023/01/10 00:10:40;;;;;;;4.63;0.95;;;10.40;96.10;;;;;;5003334;28;20128;-73
2023/01/10 00:13:24;;;;;;;3.22;1.08;;;10.30;96.20;;;;;;5007061;28;20785;-72
2023/01/10 00:15:52;;;;;;;4.93;0.80;;;10.40;96.00;;;;;;5015843;28;20044;-73
2023/01/10 00:18:20;;;;;;;4.95;1.38;;;10.40;96.00;;;;;;5014309;28;20057;-73
2023/01/10 00:20:48;;;;;;;3.13;1.05;;;10.40;96.00;;;;;;5014057;28;20409;-72
2023/01/10 00:23:14;;;;;;;4.43;0.95;;;10.30;96.00;;;;;;5014252;28;20037;-72
2023/01/10 00:25:41;;;;;;;6.15;1.15;;;10.20;96.20;;;;;;5014731;28;20813;-72
2023/01/10 00:28:18;;;;;;;4.88;1.00;;;10.20;96.30;;;;;;5048679;28;20041;-73
2023/01/10 00:30:50;;;;;;;4.88;1.40;;;10.10;96.30;;;;;;5015764;28;20098;-73
2023/01/10 00:33:18;;;;;;;3.47;0.90;;;9.90;96.30;;;;;;5019664;28;20034;-72
2023/01/10 00:35:44;;;;;;;3.22;0.95;;;10.10;96.40;;;;;;5020648;28;20049;-73
2023/01/10 00:38:10;;;;;;;5.18;1.38;;;10.00;96.40;;;;;;5015357;28;20970;-73
2023/01/10 00:40:36;;;;;;;3.78;0.90;;;9.90;96.50;;;;;;4997182;28;20494;-73
2023/01/10 00:45:46;;;;;;;8.70;1.08;;;9.90;96.50;;;;;;4987153;28;20042;-73
2023/01/10 00:48:13;;;;;;;7.05;0.90;;;9.90;96.30;;;;;;4988090;28;20080;-73
2023/01/10 00:50:39;;;;;;;4.18;1.10;;;9.70;96.40;;;;;;4994041;28;20074;-72
2023/01/10 00:53:05;;;;;;;3.10;1.08;;;9.60;96.70;;;;;;4994852;28;20077;-73
2023/01/10 00:55:32;;;;;;;4.43;1.05;;;9.50;97.00;;;;;;4994272;28;20077;-71
2023/01/10 00:57:59;;;;;;;4.65;1.10;;;9.50;97.20;;;;;;4997693;28;20077;-73
2023/01/10 01:00:25;;;;;;;;;;;9.50;97.20;;;;;;4994268;28;20030;-72
2023/01/10 01:02:51;;;;;;;2.15;0.70;;;9.50;97.40;;;;;;4993028;28;19940;-72
2023/01/10 01:05:17;;;;;;;3.47;1.08;;;9.50;97.40;;;;;;4998389;28;20038;-73
2023/01/10 01:07:48;;;;;;;4.25;0.90;;;9.60;97.50;;;;;;4995425;28;20096;-73
2023/01/10 01:10:26;;;;;;;4.90;0.68;;;9.60;97.50;;;;;;4996823;28;20058;-72
2023/01/10 01:12:59;;;;;;;3.58;0.88;;;9.60;97.60;;;;;;4999458;28;20060;-74
2023/01/10 01:15:26;;;;;;;;;;;9.50;97.40;;;;;;5000328;28;20037;-72
2023/01/10 01:17:52;;;;;;;5.13;1.17;;;9.50;97.50;;;;;;4997006;28;19917;-72
2023/01/10 01:20:20;;;;;;;2.53;0.98;;;9.50;97.80;;;;;;4997381;28;20124;-73
2023/01/10 01:22:46;;;;;;;3.10;1.10;;;9.50;97.80;;;;;;4995847;28;20034;-73
2023/01/10 01:25:12;;;;;;;5.43;1.25;;;9.60;97.80;;;;;;4994218;28;20033;-73
2023/01/10 01:27:38;;;;;;;5.55;1.17;;;9.60;98.00;;;;;;4994838;28;20041;-73
2023/01/10 01:30:05;;;;;;;2.70;1.05;;;9.50;98.10;;;;;;5009023;28;20589;-72
2023/01/10 01:32:31;;;;;;;3.03;1.17;;;9.50;98.20;;;;;;4996596;28;20045;-72
2023/01/10 01:34:57;;;;;;;5.15;1.35;;;9.30;98.30;;;;;;4994601;28;20504;-73
2023/01/10 01:37:24;;;;;;;5.72;1.23;;;9.30;98.70;;;;;;4992302;28;20042;-74
2023/01/10 01:39:50;;;;;;;5.15;1.23;;;9.20;98.30;;;;;;4992320;28;20120;-73
2023/01/10 01:42:32;;;;;;;3.53;0.88;;;9.20;98.80;;;;;;4994885;28;20038;-73
2023/01/10 01:45:07;;;;;;;4.10;0.80;;;9.00;98.80;;;;;;4994206;28;20446;-73
2023/01/10 01:47:54;;;;;;;5.65;1.70;;;8.90;99.20;;;;;;5013933;28;20041;-73
2023/01/10 01:50:23;;;;;;;3.22;0.82;;;8.90;99.40;;;;;;5012178;28;20064;-72
2023/01/10 01:52:54;;;;;;;4.38;1.45;;;9.20;98.80;;;;;;5017370;28;20057;-72
2023/01/10 01:55:21;;;;;;;3.00;1.17;;;9.30;98.70;;;;;;5014898;28;20025;-73
2023/01/10 01:57:51;;;;;;;3.38;0.90;;;9.40;98.40;;;;;;5016010;28;20049;-73
2023/01/10 02:00:17;;;;;;;4.03;1.20;;;9.50;98.20;;;;;;5011939;28;20103;-73
2023/01/10 02:02:55;;;;;;;2.17;0.60;;;9.50;98.00;;;;;;5030644;28;20033;-73
2023/01/10 02:05:23;;;;;;;2.50;0.80;;;9.60;98.00;;;;;;5013480;28;20042;-73
2023/01/10 02:07:54;;;;;;;4.47;1.45;;;9.60;97.90;;;;;;5017874;28;20049;-73
2023/01/10 02:11:00;;;;;;;3.13;0.70;;;9.60;97.80;;;;;;5015955;28;20040;-73
2023/01/10 02:13:26;;;;;;;4.18;0.98;;;9.60;97.60;;;;;;5035680;28;20071;-73
2023/01/10 02:15:53;;;;;;;3.03;1.02;;;9.80;97.30;;;;;;5021805;28;20033;-74
2023/01/10 02:18:20;;;;;;;2.85;0.70;;;9.80;97.00;;;;;;5017315;28;20037;-73
2023/01/10 02:20:58;;;;;;;;;;;9.80;96.90;;;;;;5032637;28;20049;-73
2023/01/10 02:23:30;;;;;;;2.08;0.80;;;9.80;96.90;;;;;;5001353;28;19921;-73
2023/01/10 02:26:15;;;;;;;3.80;0.80;;;9.80;96.70;;;;;;5049844;28;20396;-73
2023/01/10 02:29:20;;;;;;;3.35;1.50;;;9.80;96.50;;;;;;5005143;28;20065;-73
2023/01/10 02:31:58;;;;;;;2.05;0.90;;;9.90;96.10;;;;;;5010210;28;20129;-72
2023/01/10 02:34:41;;;;;;;3.90;1.00;;;9.90;96.20;;;;;;5047715;28;20042;-73
2023/01/10 02:37:35;;;;;;;2.78;1.45;;;9.70;96.50;;;;;;5050203;28;20392;-73
2023/01/10 02:40:10;;;;;;;2.13;1.00;;;9.50;97.20;;;;;;5049919;28;20033;-72
2023/01/10 02:42:57;;;;;;;4.03;1.10;;;9.30;97.70;;;;;;5016576;28;20033;-73
2023/01/10 02:45:45;;;;;;;4.35;1.20;;;9.20;97.90;;;;;;5047901;28;20045;-72
2023/01/10 02:48:12;;;;;;;5.00;1.40;;;9.10;98.20;;;;;;5018346;28;20044;-73
2023/01/10 02:50:41;;;;;;;;;;;9.00;98.30;;;;;;5050343;28;20091;-73
2023/01/10 02:53:13;;;;;;;4.28;1.48;;;8.90;98.40;;;;;;5016858;28;19974;-72
2023/01/10 02:56:21;;;;;;;2.45;1.17;;;8.90;98.50;;;;;;5020399;28;20038;-73
2023/01/10 02:59:19;;;;;;;2.55;0.98;;;8.80;98.70;;;;;;5033371;28;20500;-73
2023/01/10 03:02:13;;;;;;;3.08;0.90;;;8.70;98.70;;;;;;5017094;28;20123;-73
2023/01/10 03:04:54;;;;;;;3.28;1.38;;;8.50;99.10;;;;;;5016032;28;20057;-73
2023/01/10 03:07:33;;;;;;;2.95;0.93;;;8.50;99.10;;;;;;5016674;28;20100;-72
2023/01/10 03:10:43;;;;;;;4.18;1.20;;;8.50;99.20;;;;;;5018386;28;20034;-73
2023/01/10 03:13:17;;;;;;;4.15;1.25;;;8.40;99.20;;;;;;4999163;28;20088;-72
2023/01/10 03:15:46;;;;;;;3.83;1.00;;;8.40;99.30;;;;;;5030447;28;20034;-73
2023/01/10 03:18:27;;;;;;;4.55;1.02;;;8.40;99.10;;;;;;4988598;28;20037;-73
2023/01/10 03:20:55;;;;;;;3.47;0.95;;;8.60;98.80;;;;;;5019170;28;20393;-73
2023/01/10 03:23:23;;;;;;;5.32;1.27;;;8.60;98.60;;;;;;5023850;28;20509;-72
2023/01/10 03:25:51;;;;;;;3.90;1.20;;;8.60;98.70;;;;;;5016558;28;20048;-73
2023/01/10 03:28:27;;;;;;;4.28;0.90;;;8.60;98.70;;;;;;5016984;28;20362;-73
2023/01/10 03:31:08;;;;;;;4.47;1.10;;;8.60;98.60;;;;;;5019989;28;20117;-73
2023/01/10 03:33:36;;;;;;;3.90;1.20;;;8.70;98.40;;;;;;5018208;28;20034;-74
2023/01/10 03:36:21;;;;;;;2.67;1.05;;;8.70;98.40;;;;;;5019699;28;20038;-73
2023/01/10 03:38:51;;;;;;;3.88;0.88;;;8.60;98.60;;;;;;5005090;28;20030;-72
2023/01/10 03:41:51;;;;;;;5.07;1.30;;;8.50;98.80;;;;;;4999452;28;20101;-72
2023/01/10 03:44:46;;;;;;;2.85;0.98;;;8.40;98.80;;;;;;4999289;28;20544;-73
2023/01/10 03:47:18;;;;;;;2.83;1.08;;;8.40;99.00;;;;;;5009847;28;20046;-72
2023/01/10 03:49:48;;;;;;;3.72;1.20;;;8.50;99.00;;;;;;5045827;28;20038;-73
2023/01/10 03:52:16;;;;;;;2.35;0.95;;;8.50;98.90;;;;;;5019960;28;20036;-73
2023/01/10 03:54:44;;;;;;;4.45;1.10;;;8.60;98.70;;;;;;5019928;28;20037;-73
2023/01/10 03:57:19;;;;;;;9.32;1.23;;;8.70;98.70;;;;;;5011123;28;20492;-73
2023/01/10 03:59:46;;;;;;;5.60;1.23;;;8.60;98.90;;;;;;5019394;28;20044;-73
2023/01/10 04:02:12;;;;;;;2.88;1.08;;;8.50;99.10;;;;;;5046236;28;20071;-73
2023/01/10 04:04:39;;;;;;;5.93;1.73;;;8.40;99.30;;;;;;5050695;28;20731;-74
2023/01/10 04:07:05;;;;;;;3.45;1.10;;;8.40;99.30;;;;;;5014094;28;20153;-73
2023/01/10 04:09:32;;;;;;;4.05;1.20;;;8.30;99.30;;;;;;5017530;28;20034;-72
2023/01/10 04:11:59;;;;;;;3.83;0.70;;;8.30;99.30;;;;;;5046349;28;20037;-73
2023/01/10 04:14:26;;;;;;;5.63;1.75;;;8.30;99.20;;;;;;5016706;28;20034;-73
2023/01/10 04:16:52;;;;;;;6.28;1.02;;;8.30;99.00;;;;;;5017216;28;20042;-72
2023/01/10 04:19:18;;;;;;;3.78;1.17;;;8.40;98.60;;;;;;5016561;28;21342;-73
2023/01/10 04:21:44;;;;;;;2.58;0.70;;;8.50;98.20;;;;;;5017301;28;20038;-72
2023/01/10 04:24:11;;;;;;;2.95;1.10;;;8.50;98.20;;;;;;5037905;28;20069;-72
2023/01/10 04:26:37;;;;;;;3.47;1.00;;;8.50;98.30;;;;;;5045566;28;20052;-73
2023/01/10 04:29:04;;;;;;;3.47;1.05;;;8.60;98.00;;;;;;5016372;28;20172;-73
2023/01/10 04:31:31;;;;;;;3.30;1.20;;;8.60;97.90;;;;;;5046706;28;20113;-72
2023/01/10 04:33:57;;;;;;;3.38;1.35;;;8.60;97.80;;;;;;5015471;28;20760;-74
2023/01/10 04:36:23;;;;;;;4.80;0.73;;;8.70;97.70;;;;;;5045440;28;20519;-72
2023/01/10 04:38:49;;;;;;;4.32;1.10;;;8.70;97.60;;;;;;5012882;28;20497;-73
2023/01/10 04:41:15;;;;;;;2.35;0.60;;;8.70;97.60;;;;;;5044748;28;20405;-73
2023/01/10 04:43:41;;;;;;;3.97;1.02;;;8.80;97.40;;;;;;5047369;28;20453;-73
2023/01/10 04:46:07;;;;;;;3.92;0.65;;;8.80;97.30;;;;;;5015815;28;20400;-73
2023/01/10 04:48:35;;;;;;;3.92;0.98;;;8.90;97.30;;;;;;5018809;28;20030;-73
2023/01/10 04:51:02;;;;;;;3.38;0.98;;;8.80;97.50;;;;;;5016179;28;20054;-74
2023/01/10 04:53:28;;;;;;;3.08;1.20;;;8.80;97.70;;;;;;5013346;28;20121;-73
2023/01/10 04:56:02;;;;;;;2.92;0.80;;;8.80;97.50;;;;;;5016420;28;20537;-72
2023/01/10 04:58:28;;;;;;;4.72;1.23;;;8.80;97.40;;;;;;4992574;28;20049;-73
2023/01/10 05:00:55;;;;;;;2.97;1.20;;;8.90;97.30;;;;;;4999373;28;20520;-73
2023/01/10 05:03:21;;;;;;;3.92;1.33;;;8.90;97.20;;;;;;4995470;28;20050;-73
2023/01/10 05:05:47;;;;;;;4.75;0.90;;;8.90;97.10;;;;;;4997725;28;20056;-71
2023/01/10 05:08:14;;;;;;;4.40;0.73;;;8.90;97.10;;;;;;4994353;28;20471;-72
2023/01/10 05:10:40;;;;;;;3.20;1.20;;;8.80;97.10;;;;;;4994073;28;20037;-73
2023/01/10 05:13:06;;;;;;;4.53;1.10;;;8.80;97.30;;;;;;4992795;28;20034;-73
2023/01/10 05:15:32;;;;;;;4.65;1.35;;;8.80;97.60;;;;;;4996339;28;20030;-72
2023/01/10 05:17:59;;;;;;;2.70;0.98;;;8.80;97.50;;;;;;4998487;28;20038;-73
2023/01/10 05:20:25;;;;;;;2.85;0.93;;;8.90;97.60;;;;;;4992716;28;20037;-72
2023/01/10 05:22:51;;;;;;;3.55;0.90;;;8.80;97.60;;;;;;4994654;28;20027;-73
2023/01/10 05:25:17;;;;;;;6.22;1.90;;;8.80;97.70;;;;;;4990132;28;20045;-72
2023/01/10 05:27:43;;;;;;;3.50;1.13;;;8.70;97.80;;;;;;4996083;28;20045;-73
2023/01/10 05:30:11;;;;;;;4.07;1.00;;;8.70;98.10;;;;;;4981782;28;20035;-73
2023/01/10 05:32:38;;;;;;;5.80;1.30;;;8.60;98.40;;;;;;4997009;28;20540;-73
2023/01/10 05:35:04;;;;;;;5.32;1.65;;;8.60;98.70;;;;;;4995431;28;20046;-73
2023/01/10 05:37:30;;;;;;;3.92;0.95;;;8.60;98.70;;;;;;4988028;28;20431;-74
2023/01/10 05:39:56;;;;;;;3.53;0.90;;;8.50;98.80;;;;;;4982869;28;20175;-74
2023/01/10 05:42:22;;;;;;;3.50;1.08;;;8.40;99.00;;;;;;4996620;28;20520;-72
2023/01/10 05:44:49;;;;;;;7.18;1.30;;;8.50;99.20;;;;;;4995036;28;20039;-73
2023/01/10 05:47:15;;;;;;;;;;;8.50;99.30;;;;;;5000677;28;20406;-73
2023/01/10 05:49:40;;;;;;;4.60;1.48;;;8.60;99.00;;;;;;4997297;28;19924;-74
2023/01/10 05:52:06;;;;;;;3.92;0.70;;;8.70;98.50;;;;;;4998393;28;20382;-73
2023/01/10 05:54:32;;;;;;;3.55;1.33;;;8.80;98.20;;;;;;4995234;28;20043;-73
2023/01/10 05:56:58;;;;;;;5.47;1.00;;;8.90;97.90;;;;;;5011350;28;20058;-74
2023/01/10 05:59:24;;;;;;;4.68;1.60;;;8.90;97.80;;;;;;5007763;28;20125;-73
2023/01/10 06:01:50;;;;;;;6.75;1.05;;;8.90;97.80;;;;;;5014070;28;20141;-72
2023/01/10 06:04:15;;;;;;;5.15;1.10;;;9.00;97.40;;;;;;5004253;28;20489;-73
2023/01/10 06:06:41;;;;;;;2.65;0.60;;;9.10;97.10;;;;;;5027845;28;20041;-73
2023/01/10 06:09:07;;;;;;;3.45;0.80;;;9.10;97.10;;;;;;5015034;28;20068;-73
2023/01/10 06:11:35;;;;;;;3.83;0.90;;;9.10;97.40;;;;;;5016172;28;20065;-73
2023/01/10 06:14:02;;;;;;;6.30;1.00;;;9.10;97.20;;;;;;5015322;28;20548;-73
2023/01/10 06:16:27;;;;;;;5.43;1.50;;;9.10;97.20;;;;;;5015475;28;20034;-74
2023/01/10 06:18:55;;;;;;;2.83;1.08;;;9.20;97.20;;;;;;5020206;28;20096;-75
2023/01/10 06:21:21;;;;;;;3.60;1.08;;;9.10;97.10;;;;;;5012088;28;20090;-74
2023/01/10 06:23:47;;;;;;;2.60;1.10;;;9.10;97.20;;;;;;5001013;28;20041;-74
2023/01/10 06:26:13;;;;;;;3.92;1.27;;;9.20;97.30;;;;;;5024053;28;20042;-73
2023/01/10 06:28:42;;;;;;;4.70;1.05;;;9.10;97.10;;;;;;5018368;28;20057;-74
2023/01/10 06:31:08;;;;;;;3.67;1.17;;;9.10;97.20;;;;;;5030996;28;20050;-73
2023/01/10 06:33:34;;;;;;;3.08;1.02;;;9.00;97.30;;;;;;5003180;28;20036;-74
2023/01/10 06:36:02;;;;;;;4.25;1.02;;;9.20;97.30;;;;;;5018050;28;20037;-74
2023/01/10 06:38:27;;;;;;;2.92;0.80;;;9.10;97.30;;;;;;5029333;28;20110;-74
2023/01/10 06:40:53;;;;;;;3.75;1.40;;;9.30;97.20;;;;;;5016818;28;20501;-74
2023/01/10 06:43:22;;;;;;;2.92;0.93;;;9.30;97.20;;;;;;5044726;28;20104;-74
2023/01/10 06:45:47;;;;;;;5.43;1.00;;;9.30;97.10;;;;;;5017240;28;20049;-73
2023/01/10 06:48:13;;;;;;;3.90;1.15;;;9.30;97.20;;;;;;4990662;28;20580;-73
2023/01/10 06:50:39;;;;;;;3.92;1.42;;;9.30;97.30;;;;;;5017122;28;20057;-74
2023/01/10 06:53:05;;;;;;;3.20;0.63;;;9.20;97.30;;;;;;5011714;28;20542;-73
2023/01/10 06:55:32;;;;;;;3.65;1.13;;;9.20;97.30;;;;;;5016897;28;20088;-72
2023/01/10 06:58:00;;;;;;;5.03;1.73;;;9.20;97.20;;;;;;5022375;28;20041;-73
2023/01/10 07:00:28;;;;;;;3.72;1.00;;;9.10;97.30;;;;;;5019797;28;20057;-73
2023/01/10 07:02:55;;;;;;;3.83;1.10;;;9.00;97.50;;;;;;5013633;28;20424;-73
2023/01/10 07:05:21;;;;;;;;;;;8.90;97.60;;;;;;5013706;28;20038;-73
2023/01/10 07:07:46;;;;;;;3.97;1.23;;;9.00;97.40;;;;;;5020689;28;19921;-73
2023/01/10 07:10:13;;;;;;;2.85;1.00;;;9.10;97.30;;;;;;5020241;28;20026;-73
2023/01/10 07:12:39;;;;;;;6.38;1.77;;;9.10;97.10;;;;;;5017373;28;20073;-73
2023/01/10 07:15:07;;;;;;;3.92;0.80;;;9.20;97.10;;;;;;5018064;28;20061;-75
2023/01/10 07:17:33;;;;;;;3.20;0.90;;;9.10;97.20;;;;;;5016824;28;20057;-73
2023/01/10 07:19:58;;;;;;;3.58;1.25;;;9.10;97.50;;;;;;5017186;28;20041;-72
2023/01/10 07:22:24;;;;;;;5.57;1.10;;;9.10;97.90;;;;;;5013833;28;20543;-73
2023/01/10 07:24:50;;;;;;;3.40;0.95;;;9.10;98.10;;;;;;5049543;28;20051;-72
2023/01/10 07:27:16;;;;;;;3.50;1.08;;;9.00;98.30;;;;;;5053137;28;20469;-72
2023/01/10 07:29:42;;;;;;;3.03;1.02;;;9.10;98.50;;;;;;5031370;28;20053;-73
2023/01/10 07:32:08;;;;;;;4.25;1.13;;;9.00;98.60;;;;;;5016996;28;22037;-72
2023/01/10 07:34:34;;;;;;;3.42;1.23;;;9.00;98.80;;;;;;5034072;28;20077;-73
2023/01/10 07:37:01;;;;;;;4.25;0.80;;;9.00;98.80;;;;;;5015444;28;20370;-74
2023/01/10 07:39:27;;;;;;;3.85;1.30;;;9.10;98.80;;;;;;5015194;28;20120;-73
2023/01/10 07:41:53;;;;;;;3.88;0.80;;;9.10;98.60;;;;;;5019597;28;20092;-74
2023/01/10 07:44:19;;;;;;;5.90;1.30;;;9.20;98.40;;;;;;5047244;28;20078;-73
2023/01/10 07:46:45;;;;;;;3.60;1.10;;;9.30;98.30;;;;;;5016339;28;20049;-73
2023/01/10 07:49:12;;;;;;;4.75;1.30;;;9.40;98.10;;;;;;5009456;28;20034;-75
2023/01/10 07:51:39;;;;;;;3.17;1.17;;;9.40;98.00;;;;;;5020812;28;20038;-73
2023/01/10 07:54:05;;;;;;;4.85;0.82;;;9.40;97.80;;;;;;5016469;28;20478;-73
2023/01/10 07:56:31;;;;;;;2.20;0.88;;;9.50;97.70;;;;;;5047880;28;20497;-73
2023/01/10 07:58:57;;;;;;;3.50;1.08;;;9.50;97.60;;;;;;5019552;28;20029;-73
2023/01/10 08:01:24;;;;;;;3.53;1.13;;;9.60;97.60;;;;;;5017658;28;20045;-73
2023/01/10 08:03:54;;;;;;;3.05;1.02;;;9.70;97.40;;;;;;5017985;28;20079;-73
2023/01/10 08:06:19;;;;;;;4.95;0.95;;;9.80;97.30;;;;;;5015567;28;20034;-73
2023/01/10 08:08:47;;;;;;;3.55;0.80;;;9.90;97.30;;;;;;5016428;28;20030;-73
2023/01/10 08:11:13;;;;;;;3.88;1.00;;;10.00;97.20;;;;;;5017631;28;20033;-72
2023/01/10 08:13:39;;;;;;;4.30;1.15;;;10.00;97.10;;;;;;5000523;28;20047;-73
2023/01/10 08:16:07;;;;;;;5.00;1.10;;;10.10;97.00;;;;;;5016437;28;20513;-72
2023/01/10 08:18:33;;;;;;;5.80;1.00;;;10.10;97.00;;;;;;5049760;28;20444;-73
2023/01/10 08:20:59;;;;;;;3.22;1.10;;;10.10;97.00;;;;;;5010171;28;20034;-73
2023/01/10 08:23:26;;;;;;;7.47;1.20;;;10.20;96.80;;;;;;5014814;28;20041;-73
2023/01/10 08:25:53;;;;;;;6.80;1.30;;;10.30;96.70;;;;;;5012529;28;20509;-72
2023/01/10 08:28:18;;;;;;;;;;;10.80;95.90;;;;;;5047427;28;20173;-73
2023/01/10 08:30:44;;;;;;;2.90;1.20;;;10.70;95.80;;;;;;5016463;28;19992;-73
2023/01/10 08:33:11;;;;;;;2.53;0.65;;;10.80;95.50;;;;;;5021103;28;20025;-72
2023/01/10 08:35:38;;;;;;;3.38;1.38;;;12.00;94.40;;;;;;5027286;28;20029;-74
2023/01/10 08:38:04;;;;;;;9.77;2.50;;;12.70;93.40;;;;;;5014517;28;20034;-72
2023/01/10 08:40:30;;;;;;;3.92;1.67;;;13.40;92.90;;;;;;5019337;28;20091;-73
2023/01/10 08:43:03;;;;;;;3.30;1.98;;;13.90;91.90;;;;;;5050085;28;20212;-72
2023/01/10 08:45:30;;;;;;;3.70;1.65;;;14.20;91.40;;;;;;5016217;28;20112;-73
2023/01/10 08:47:56;;;;;;;2.65;1.50;;;14.20;91.50;;;;;;5015393;28;20049;-72
2023/01/10 08:50:22;;;;;;;3.60;1.70;;;14.50;91.20;;;;;;5001620;28;20050;-73
2023/01/10 08:53:12;;;;;;;3.75;1.70;;;14.60;91.00;;;;;;4989944;28;20070;-74
2023/01/10 08:55:37;;;;;;;10.32;2.42;;;14.80;90.50;;;;;;5012436;28;20034;-73
2023/01/10 08:58:03;;;;;;;16.52;2.72;;;15.30;90.50;;;;;;4987039;28;20034;-74
2023/01/10 09:00:29;;;;;;;7.25;1.77;;;15.20;90.10;;;;;;5043367;28;20044;-74
2023/01/10 09:02:56;;;;;;;5.40;1.27;;;14.80;90.40;;;;;;5020915;28;20040;-73
2023/01/10 09:05:22;;;;;;;5.15;1.50;;;14.40;90.90;;;;;;5030300;28;20045;-73
2023/01/10 09:07:48;;;;;;;5.85;1.67;;;13.60;91.70;;;;;;5046080;28;20061;-73
2023/01/10 09:10:14;;;;;;;4.53;1.58;;;13.40;92.10;;;;;;5046607;28;20065;-73
2023/01/10 09:12:55;;;;;;;2.88;1.52;;;13.20;92.50;;;;;;5010512;28;20510;-74
2023/01/10 09:15:22;;;;;;;4.93;1.60;;;13.10;92.60;;;;;;5004735;28;20072;-74
2023/01/10 09:17:48;;;;;;;4.30;1.95;;;13.00;92.80;;;;;;4991071;28;20153;-73
2023/01/10 09:20:15;;;;;;;4.53;1.17;;;12.90;92.80;;;;;;4998491;28;20041;-73
2023/01/10 09:22:41;;;;;;;5.05;1.85;;;12.80;93.00;;;;;;4992390;28;20045;-72
2023/01/10 09:25:07;;;;;;;5.55;1.52;;;12.90;93.20;;;;;;4979250;28;20486;-74
2023/01/10 09:27:33;;;;;;;7.15;1.60;;;12.70;93.40;;;;;;5017240;28;20056;-74
2023/01/10 09:29:59;;;;;;;5.38;1.60;;;12.80;93.60;;;;;;5027182;28;20377;-73
2023/01/10 09:32:25;;;;;;;5.55;1.73;;;12.90;93.60;;;;;;5012165;28;20577;-72
2023/01/10 09:34:51;;;;;;;8.80;1.60;;;13.10;93.40;;;;;;5009826;28;20091;-73
2023/01/10 09:37:17;;;;;;;4.60;1.92;;;13.20;93.30;;;;;;5006761;28;20034;-73
2023/01/10 09:39:45;;;;;;;5.53;1.40;;;13.60;92.80;;;;;;5044540;28;20378;-74
2023/01/10 09:42:38;;;;;;;6.25;2.00;;;14.20;92.40;;;;;;5016665;28;20068;-73
2023/01/10 09:45:15;;;;;;;4.82;1.42;;;14.40;91.90;;;;;;5044662;28;20044;-73
2023/01/10 09:47:53;;;;;;;5.28;1.77;;;14.50;91.60;;;;;;5044456;28;20137;-73
2023/01/10 09:50:44;;;;;;;3.40;2.15;;;14.30;91.50;;;;;;5046295;28;20038;-73
2023/01/10 09:53:23;;;;;;;3.58;1.50;;;14.50;91.20;;;;;;5011732;28;20041;-73
2023/01/10 09:55:55;;;;;;;4.00;1.73;;;14.50;91.00;;;;;;5008902;28;20026;-73
2023/01/10 09:58:26;;;;;;;4.13;1.60;;;14.60;91.10;;;;;;5016467;28;20049;-73
2023/01/10 10:00:55;;;;;;;4.30;1.83;;;14.60;90.80;;;;;;5008638;28;20564;-73
2023/01/10 10:03:26;;;;;;;4.00;1.58;;;14.40;91.00;;;;;;5038319;28;20141;-72
2023/01/10 10:05:53;;;;;;;7.03;1.65;;;14.40;91.00;;;;;;5010445;28;22153;-72
2023/01/10 10:08:19;;;;;;;4.85;1.77;;;14.40;91.10;;;;;;5011527;28;20037;-73
2023/01/10 10:10:54;;;;;;;;;;;14.60;91.10;;;;;;5035279;28;20629;-73
2023/01/10 10:13:41;;;;;;;4.50;1.65;;;14.60;90.80;;;;;;5013678;28;19913;-74
2023/01/10 10:16:30;;;;;;;5.55;1.90;;;14.30;91.10;;;;;;5014501;28;20037;-72
2023/01/10 10:19:14;;;;;;;3.40;1.27;;;14.00;91.30;;;;;;5012899;28;20049;-73
2023/01/10 10:22:05;;;;;;;6.35;2.20;;;14.10;91.30;;;;;;5009475;28;20046;-73
2023/01/10 10:24:39;;;;;;;3.60;1.20;;;14.10;91.40;;;;;;5012329;28;20409;-73
2023/01/10 10:27:35;;;;;;;4.72;2.05;;;14.00;91.10;;;;;;5010274;28;20165;-74
2023/01/10 10:30:14;;;;;;;6.40;2.53;;;14.50;91.40;;;;;;5022960;28;20071;-74
2023/01/10 10:32:58;;;;;;;7.38;2.28;;;14.30;90.80;;;;;;5005117;28;20038;-74
2023/01/10 10:35:33;;;;;;;4.70;2.03;;;14.60;90.70;;;;;;4999337;28;20151;-74
2023/01/10 10:38:31;;;;;;;4.25;1.40;;;14.40;90.70;;;;;;5016204;28;20038;-73
2023/01/10 10:40:59;;;;;;;4.50;1.60;;;14.70;90.30;;;;;;5002556;28;20119;-74
2023/01/10 10:43:31;;;;;;;4.97;1.77;;;14.80;90.30;;;;;;5025932;28;20048;-73
2023/01/10 10:46:05;;;;;;;5.15;1.73;;;14.90;90.60;;;;;;4998830;28;20042;-73
2023/01/10 10:48:35;;;;;;;10.50;2.17;;;15.20;90.30;;;;;;5000114;28;20050;-73
2023/01/10 10:51:01;;;;;;;5.00;1.52;;;14.80;90.50;;;;;;4993976;28;20054;-73
2023/01/10 10:53:28;;;;;;;5.60;2.42;;;14.80;90.60;;;;;;5020946;28;20041;-73
2023/01/10 10:55:55;;;;;;;6.72;2.33;;;15.20;90.40;;;;;;5017549;28;20025;-72
2023/01/10 10:58:22;;;;;;;4.25;1.65;;;15.50;90.10;;;;;;5017697;28;20065;-74
2023/01/10 11:00:47;;;;;;;5.28;2.03;;;15.20;90.10;;;;;;5013230;28;20052;-73
2023/01/10 11:03:37;;;;;;;4.70;2.00;;;15.00;90.50;;;;;;5043068;28;20124;-73
2023/01/10 11:06:06;;;;;;;6.18;2.33;;;14.60;91.50;;;;;;4998305;28;20050;-73
2023/01/10 11:08:39;;;;;;;5.40;1.70;;;14.40;92.10;;;;;;4992516;28;20414;-74
2023/01/10 11:11:13;;;;;;;5.03;1.70;;;14.40;92.00;;;;;;4990977;28;20544;-75
2023/01/10 11:14:00;;;;;;;5.45;1.40;;;14.20;91.70;;;;;;4994282;28;20419;-73
2023/01/10 11:16:36;;;;;;;5.55;2.30;;;14.30;91.40;;;;;;4990861;28;20038;-75
2023/01/10 11:19:22;;;;;;;6.35;2.13;;;14.90;91.10;;;;;;4992920;28;20104;-72
2023/01/10 11:22:05;;;;;;;6.35;1.98;;;15.10;90.60;;;;;;4997623;28;20029;-74
2023/01/10 11:24:38;;;;;;;4.43;1.85;;;15.40;90.30;;;;;;5000618;28;20775;-74
2023/01/10 11:27:15;;;;;;;5.20;2.40;;;15.70;90.20;;;;;;5010019;28;20056;-73
2023/01/10 11:30:20;;;;;;;4.22;1.70;;;15.80;90.30;;;;;;5011876;28;20068;-74
2023/01/10 11:32:53;;;;;;;8.38;2.35;;;15.90;89.60;;;;;;5012931;28;20120;-74
2023/01/10 11:35:26;;;;;;;7.57;2.08;;;16.90;88.70;;;;;;5000887;28;20042;-73
2023/01/10 11:38:16;;;;;;;5.05;2.58;;;17.80;88.20;;;;;;5019351;28;20038;-74
2023/01/10 11:41:03;;;;;;;4.93;2.20;;;18.60;86.50;;;;;;5007370;28;20069;-74
2023/01/10 11:43:38;;;;;;;6.10;2.15;;;18.80;86.00;;;;;;5013663;28;20437;-74
2023/01/10 11:46:11;;;;;;;4.90;1.92;;;18.60;85.90;;;;;;5013712;28;20048;-73
2023/01/10 11:48:46;;;;;;;5.13;2.40;;;18.90;85.30;;;;;;5044523;28;20373;-76
2023/01/10 11:51:25;;;;;;;5.80;2.13;;;18.60;85.70;;;;;;5014669;28;20453;-74
2023/01/10 11:54:00;;;;;;;5.35;1.55;;;18.40;85.50;;;;;;5016902;28;21053;-74
2023/01/10 11:56:30;;;;;;;4.90;2.38;;;18.60;84.70;;;;;;5010616;28;20125;-73
2023/01/10 11:58:59;;;;;;;8.68;3.15;;;18.40;84.60;;;;;;5001887;28;20038;-74
2023/01/10 12:01:35;;;;;;;5.55;2.85;;;19.70;84.00;;;;;;4997979;28;20061;-74
2023/01/10 12:04:01;;;;;;;5.63;2.50;;;19.50;82.40;;;;;;4997449;28;20039;-74
2023/01/10 12:06:29;;;;;;;8.30;2.92;;;20.10;83.00;;;;;;4996054;28;20066;-73
2023/01/10 12:08:56;;;;;;;6.05;2.83;;;20.80;82.40;;;;;;4985433;28;20131;-73
2023/01/10 12:11:31;;;;;;;6.00;3.30;;;21.00;81.30;;;;;;4974864;28;20162;-74
2023/01/10 12:13:59;;;;;;;5.63;2.85;;;21.00;81.20;;;;;;4998905;28;20045;-74
2023/01/10 12:16:28;;;;;;;6.07;2.72;;;21.60;81.20;;;;;;4996586;28;20038;-72
2023/01/10 12:18:59;;;;;;;7.70;3.70;;;20.90;80.90;;;;;;4993891;28;20080;-74
2023/01/10 12:21:40;;;;;;;7.28;3.13;;;21.30;80.80;;;;;;4991591;28;20033;-73
2023/01/10 12:24:21;;;;;;;6.72;2.80;;;21.70;80.10;;;;;;4985763;28;20098;-73
2023/01/10 12:26:50;;;;;;;7.57;3.53;;;21.80;79.60;;;;;;4988360;28;20037;-73
2023/01/10 12:29:46;;;;;;;6.15;3.55;;;22.60;79.30;;;;;;5009043;28;20041;-76
2023/01/10 12:32:22;;;;;;;5.15;3.13;;;22.70;79.00;;;;;;4955773;28;20031;-74
2023/01/10 12:35:03;;;;;;;7.80;3.80;;;23.10;78.10;;;;;;5003446;28;20072;-74
2023/01/10 12:37:42;;;;;;;9.73;3.67;;;23.10;77.60;;;;;;5016212;28;20038;-74
2023/01/10 12:40:51;;;;;;;6.68;2.65;;;23.60;77.50;;;;;;5015041;28;20444;-74
2023/01/10 12:46:41;;;;;;;6.55;3.17;;;23.60;77.30;;;;;;5015578;28;20052;-74
2023/01/10 12:49:23;;;;;;;8.05;3.97;;;24.40;75.80;;;;;;5017658;28;20504;-76
2023/01/10 12:51:51;;;;;;;6.22;3.80;;;24.70;75.80;;;;;;5030218;28;20389;-75
2023/01/10 12:54:22;;;;;;;10.93;4.05;;;24.80;75.20;;;;;;5027190;28;20025;-75
2023/01/10 12:56:49;;;;;;;6.03;3.17;;;24.40;75.50;;;;;;5016001;28;20026;-74
2023/01/10 12:59:37;;;;;;;6.20;2.67;;;24.70;75.20;;;;;;5026258;28;20134;-76
2023/01/10 13:02:06;;;;;;;6.10;3.55;;;23.90;75.20;;;;;;5014836;28;20025;-74
2023/01/10 13:04:35;;;;;;;5.95;3.00;;;23.90;75.50;;;;;;5017251;28;20087;-75
2023/01/10 13:07:02;;;;;;;9.07;2.97;;;22.50;76.20;;;;;;5003107;28;20125;-76
2023/01/10 13:09:29;;;;;;;6.75;3.20;;;22.80;76.50;;;;;;5016759;28;20577;-74
2023/01/10 13:12:09;;;;;;;5.88;3.05;;;23.30;76.90;;;;;;5008618;28;20038;-75
2023/01/10 13:15:05;;;;;;;7.20;3.80;;;24.00;75.90;;;;;;4996408;28;20073;-74
2023/01/10 13:17:31;;;;;;;5.50;3.35;;;24.00;75.70;;;;;;4990278;28;20038;-74
2023/01/10 13:20:15;;;;;;;7.47;2.72;;;24.20;75.10;;;;;;4995175;28;20046;-74
2023/01/10 13:22:46;;;;;;;8.13;3.13;;;24.40;75.10;;;;;;5009330;28;20034;-74